Airport ID:KSMD
Update Time (UTC):10/12/2019 08:34
Wind Speed (Knots):15
Wind Direction (Magnetic):250
Temperature (°C):-2.1
Dew Point (°C):-4.1
Humidity (%):85.9
Altimeter (inHg):29.84
Density Altitude (Feet):
Visibility (Miles):10
Clouds (Hundreds of feet):\\\\
Present Weather:
METAR:METAR KSMD 100830Z AUTO 25017G23KT 10SM M02/M04 A2983 RMK A01

The data displayed is for advisory purposes only and is not to be used for flight planning or operations.

This page is not automatically refreshed. Reload the page to see current data.